Meath Environmental Platform

Observations

Time Sensor AQI SAQ Temp °C Hum % Pres Pa CO μg/m³ H₂S μg/m³ NO μg/m³ NO₂ μg/m³ O₃ μg/m³ SO₂ μg/m³ CO₂e PPM VOC PPM PM1 μg/m³ PM2.5 μg/m³ PM4 μg/m³ PM10 μg/m³ TPS µm
Wednesday 12 August 2026
02:15 Trim Patrick St 2 19 67 83,369 0 6.97 1.31 33.87 47.6 0.98 5.43 9.71 10.68
02:14 Trim Patrick St 2 19 67 82,961 0 7.41 1.3 20.62 39.84 1.23 5.43 9.68 10.65
02:14 Trim Market St 2 19.8 62 57,661 0.01 0 1.23 16.05 59.03 0 2.14 3.41 4.84
02:10 Trim Patrick St 2 19 67 81,691 0 9.25 1.29 29.43 45.9 1.28 4.57 8.28 9.11
02:10 Trim Market St 2 19.8 62 57,681 0.01 0 1.24 20.24 59.22 0 1.43 3.91 7.53
02:09 Trim Patrick St 2 19 67 81,207 0 7.31 1.29 32.7 52.48 1.47 4.57 8.99 9.88
02:09 Trim Market St 2 19.8 62 57,687 0 0 1.23 16.68 59.61 0 1.43 3.92 6.86
02:08 Trim Market St 2 19.8 62 57,692 0.01 0 1.23 29.1 49.56 0 0.71 2.92 4.84
02:07 Trim Market St 2 19.8 62 57,697 0 0 1.23 15.5 62.83 0 1.43 3.43 4.83
02:07 Trim Patrick St 2 19 66 80,742 0 8.1 1.28 23.39 34.66 1.36 4.57 9.76 10.73
02:06 Trim Market St 2 19.8 62 57,698 0.01 0 1.23 19.95 58.42 0 1.43 3.43 6.18
02:06 Trim Patrick St 2 19.1 66 80,433 0 8.3 1.31 35.73 51.29 1.52 3.71 8.3 9.13
02:05 Trim Market St 2 19.9 62 57,703 0 0 1.23 15.76 62.76 0 2.14 3.43 5.51
02:05 Trim Patrick St 2 19.1 67 80,111 0 7.28 1.29 38.05 39.46 1.44 4.57 8.26 9.08
02:04 Trim Market St 2 19.9 62 57,706 0 0 1.23 21.34 58.06 0 1.43 3.43 4.83
02:04 Trim Patrick St 2 19.1 66 79,790 0 5.36 1.32 13.54 34.91 1.3 5.43 10.5 11.55
02:03 Trim Market St 2 19.9 62 57,711 0 0 1.23 24.76 58.03 0 1.43 3.44 6.18
02:03 Trim Patrick St 2 19.1 64 79,607 0 9.78 1.25 33.09 53.62 1.71 4.57 8.44 9.28
02:02 Trim Market St 2 19.9 62 57,719 0 0 1.23 14.17 58.41 0 1.43 3.94 5.5
02:02 Trim Patrick St 2 19.1 67 79,335 0 8.38 1.28 38.08 36.79 1.52 4.57 9 9.9